createdAt,value
2022-09-28T00:04:10.270Z,8.10
2022-09-28T00:09:12.515Z,8.00
2022-09-28T00:14:15.398Z,8.00
2022-09-28T00:19:19.048Z,8.00
2022-09-28T00:24:25.195Z,8.00
2022-09-28T00:29:31.686Z,7.90
2022-09-28T00:34:37.429Z,7.90
2022-09-28T00:39:41.480Z,7.80
2022-09-28T00:44:53.601Z,7.90
2022-09-28T00:50:00.535Z,7.90
2022-09-28T00:55:06.312Z,7.90
2022-09-28T01:00:10.138Z,7.90
2022-09-28T01:05:14.995Z,7.90
2022-09-28T01:10:17.440Z,7.90
2022-09-28T01:15:21.941Z,7.90
2022-09-28T01:20:58.831Z,7.80
2022-09-28T01:26:18.875Z,7.80
2022-09-28T01:31:27.516Z,7.80
2022-09-28T01:36:34.952Z,7.70
2022-09-28T01:41:41.502Z,7.70
2022-09-28T01:46:48.131Z,7.60
2022-09-28T01:51:56.070Z,7.60
2022-09-28T01:57:06.806Z,7.50
2022-09-28T02:02:13.899Z,7.50
2022-09-28T02:07:21.472Z,7.50
2022-09-28T02:12:30.011Z,7.50
2022-09-28T02:17:32.191Z,7.40
2022-09-28T02:22:37.712Z,7.30
2022-09-28T02:27:46.367Z,7.40
2022-09-28T02:32:52.166Z,7.40
2022-09-28T02:37:56.379Z,7.50
2022-09-28T02:43:05.233Z,7.60
2022-09-28T02:48:31.457Z,7.60
2022-09-28T02:53:55.151Z,7.70
2022-09-28T02:59:09.062Z,7.70
2022-09-28T03:04:19.420Z,7.60
2022-09-28T03:09:25.843Z,7.60
2022-09-28T03:14:29.349Z,7.70
2022-09-28T03:19:33.543Z,7.60
2022-09-28T03:24:35.737Z,7.50
2022-09-28T03:29:40.755Z,7.50
2022-09-28T03:34:42.994Z,7.50
2022-09-28T03:39:45.180Z,7.50
2022-09-28T03:44:48.734Z,7.50
2022-09-28T03:49:51.059Z,7.50
2022-09-28T03:54:53.229Z,7.50
2022-09-28T03:59:56.780Z,7.60
2022-09-28T04:04:58.953Z,7.70
2022-09-28T04:10:01.155Z,7.80
2022-09-28T04:15:04.954Z,7.90
2022-09-28T04:20:08.169Z,7.90
2022-09-28T04:25:10.737Z,7.90
2022-09-28T04:30:15.239Z,7.90
2022-09-28T04:35:17.485Z,7.90
2022-09-28T04:40:19.760Z,7.90
2022-09-28T04:45:26.196Z,8.00
2022-09-28T04:50:28.479Z,8.00
2022-09-28T04:55:32.860Z,8.00
2022-09-28T05:00:36.483Z,8.10
2022-09-28T05:05:44.497Z,8.10
2022-09-28T05:10:47.137Z,8.20
2022-09-28T05:15:58.884Z,8.30
2022-09-28T05:21:05.774Z,8.30
2022-09-28T05:26:09.420Z,8.10
2022-09-28T05:31:12.934Z,8.10
2022-09-28T05:36:15.165Z,8.20
2022-09-28T05:41:17.364Z,8.30
2022-09-28T05:46:21.992Z,8.40
2022-09-28T05:51:24.855Z,8.60
2022-09-28T05:56:27.009Z,8.70
2022-09-28T06:01:30.567Z,8.80
2022-09-28T06:06:32.974Z,9.00
2022-09-28T06:11:35.364Z,9.10
2022-09-28T06:16:43.618Z,9.10
2022-09-28T06:21:46.042Z,9.20
2022-09-28T06:26:48.208Z,9.40
2022-09-28T06:31:51.941Z,9.50
2022-09-28T06:36:54.416Z,9.40
2022-09-28T06:41:56.596Z,9.40
2022-09-28T06:47:00.178Z,9.40
2022-09-28T06:52:02.782Z,9.40
2022-09-28T06:57:05.146Z,9.50
2022-09-28T07:02:12.491Z,9.50
2022-09-28T07:07:14.762Z,9.60
2022-09-28T07:12:17.095Z,9.70
2022-09-28T07:17:20.757Z,9.80
2022-09-28T07:22:37.018Z,10.00
2022-09-28T07:27:42.214Z,10.10
2022-09-28T07:32:46.874Z,10.10
2022-09-28T07:37:49.157Z,10.20
2022-09-28T07:42:51.400Z,10.30
2022-09-28T07:47:57.555Z,10.40
2022-09-28T07:53:00.805Z,10.50
2022-09-28T07:58:02.990Z,10.60
2022-09-28T08:03:06.579Z,10.80
2022-09-28T08:08:08.694Z,11.00
2022-09-28T08:13:11.068Z,11.50
2022-09-28T08:18:14.645Z,12.00
2022-09-28T08:23:17.250Z,12.50
2022-09-28T08:28:19.762Z,12.80
2022-09-28T08:33:23.486Z,12.90
2022-09-28T08:38:26.794Z,12.90
2022-09-28T08:44:01.201Z,12.80
2022-09-28T08:49:26.266Z,12.80
2022-09-28T08:54:46.075Z,12.80
2022-09-28T08:59:52.583Z,12.60
2022-09-28T09:04:57.227Z,13.00
2022-09-28T09:10:11.693Z,13.50
2022-09-28T09:15:34.842Z,13.50
2022-09-28T09:20:49.121Z,13.70
2022-09-28T09:25:55.216Z,13.80
2022-09-28T09:31:09.294Z,13.80
2022-09-28T09:36:25.380Z,14.10
2022-09-28T09:41:38.892Z,14.20
2022-09-28T09:46:45.725Z,14.40
2022-09-28T09:51:53.646Z,14.80
2022-09-28T09:57:00.753Z,15.00
2022-09-28T10:02:11.840Z,15.40
2022-09-28T10:07:23.659Z,15.70
2022-09-28T10:12:26.543Z,15.70
2022-09-28T10:17:28.741Z,16.10
2022-09-28T10:22:33.286Z,15.90
2022-09-28T10:27:37.496Z,16.10
2022-09-28T10:32:41.011Z,16.80
2022-09-28T10:37:55.230Z,17.30
2022-09-28T10:43:02.835Z,17.70
2022-09-28T10:48:17.757Z,18.00
2022-09-28T10:53:22.289Z,18.40
2022-09-28T10:58:29.835Z,18.80
2022-09-28T11:03:32.589Z,19.40
2022-09-28T11:08:39.674Z,19.80
2022-09-28T11:13:47.611Z,19.70
2022-09-28T11:18:50.149Z,19.10
2022-09-28T11:24:07.557Z,18.70
2022-09-28T11:29:26.812Z,18.20
2022-09-28T11:34:57.400Z,17.90
2022-09-28T11:40:12.559Z,17.80
2022-09-28T11:45:31.268Z,17.90
2022-09-28T11:50:44.326Z,18.50
2022-09-28T11:55:51.877Z,18.70
2022-09-28T12:00:59.231Z,18.70
2022-09-28T12:06:04.916Z,18.50
2022-09-28T12:11:15.714Z,18.30
2022-09-28T12:16:45.773Z,18.70
2022-09-28T12:21:51.315Z,19.80
2022-09-28T12:26:58.695Z,20.60
2022-09-28T12:32:08.472Z,20.80
2022-09-28T12:37:24.346Z,20.50
2022-09-28T12:42:46.307Z,20.40
2022-09-28T12:48:09.052Z,20.10
2022-09-28T12:53:35.320Z,19.50
2022-09-28T12:59:01.138Z,19.80
2022-09-28T13:04:36.671Z,20.00
2022-09-28T13:09:52.084Z,20.50
2022-09-28T13:15:24.928Z,21.10
2022-09-28T13:20:36.979Z,21.90
2022-09-28T13:25:44.796Z,22.20
2022-09-28T13:30:51.474Z,22.50
2022-09-28T13:35:53.796Z,22.40
2022-09-28T13:41:13.742Z,21.90
2022-09-28T13:46:27.131Z,21.60
2022-09-28T13:51:47.467Z,21.40
2022-09-28T13:56:56.008Z,21.40
2022-09-28T14:02:07.258Z,21.40
2022-09-28T14:07:12.759Z,21.40
2022-09-28T14:12:46.365Z,21.30
2022-09-28T14:17:59.077Z,21.20
2022-09-28T14:23:26.687Z,20.90
2022-09-28T14:28:44.972Z,20.70
2022-09-28T14:33:59.061Z,20.70
2022-09-28T14:39:18.953Z,20.50
2022-09-28T14:44:21.224Z,20.30
2022-09-28T14:50:00.639Z,20.10
2022-09-28T14:55:03.222Z,20.00
2022-09-28T15:00:16.372Z,20.10
2022-09-28T15:05:24.931Z,19.90
2022-09-28T15:10:32.277Z,19.60
2022-09-28T15:15:38.644Z,19.20
2022-09-28T15:20:46.672Z,19.00
2022-09-28T15:25:53.942Z,18.70
2022-09-28T15:31:02.671Z,18.60
2022-09-28T15:36:08.810Z,18.60
2022-09-28T15:41:11.819Z,18.50
2022-09-28T15:46:20.704Z,18.10
2022-09-28T15:51:25.724Z,17.80
2022-09-28T15:56:29.473Z,17.40
2022-09-28T16:01:37.145Z,17.40
2022-09-28T16:06:42.124Z,17.30
2022-09-28T16:11:44.301Z,16.90
2022-09-28T16:16:49.624Z,16.50
2022-09-28T16:21:55.801Z,16.30
2022-09-28T16:27:01.159Z,15.80
2022-09-28T16:32:37.748Z,15.50
2022-09-28T16:37:42.806Z,15.30
2022-09-28T16:42:49.341Z,15.00
2022-09-28T16:47:53.178Z,14.90
2022-09-28T16:53:19.909Z,14.80
2022-09-28T16:58:22.862Z,14.50
2022-09-28T17:03:25.941Z,14.50
2022-09-28T17:08:29.610Z,14.30
2022-09-28T17:13:34.954Z,14.20
2022-09-28T17:18:39.197Z,14.20
2022-09-28T17:23:42.828Z,14.20
2022-09-28T17:28:45.008Z,14.10
2022-09-28T17:33:47.269Z,14.00
2022-09-28T17:38:51.850Z,14.00
2022-09-28T17:43:53.929Z,13.80
2022-09-28T17:48:59.557Z,13.80
2022-09-28T17:54:03.480Z,13.60
2022-09-28T17:59:07.457Z,13.40
2022-09-28T18:04:22.929Z,13.30
2022-09-28T18:09:31.438Z,13.20
2022-09-28T18:14:33.851Z,13.00
2022-09-28T18:19:35.981Z,13.00
2022-09-28T18:24:39.509Z,13.00
2022-09-28T18:29:41.695Z,12.90
2022-09-28T18:34:43.916Z,13.00
2022-09-28T18:39:47.416Z,12.90
2022-09-28T18:44:52.275Z,12.90
2022-09-28T18:49:54.555Z,12.90
2022-09-28T18:54:58.243Z,12.90
2022-09-28T19:00:00.437Z,12.90
2022-09-28T19:05:03.065Z,12.80
2022-09-28T19:10:07.766Z,12.70
2022-09-28T19:15:10.342Z,12.50
2022-09-28T19:20:12.740Z,12.30
2022-09-28T19:25:17.350Z,12.20
2022-09-28T19:30:19.738Z,12.10
2022-09-28T19:35:22.286Z,12.00
2022-09-28T19:40:26.067Z,11.90
2022-09-28T19:45:28.286Z,11.80
2022-09-28T19:50:31.860Z,11.70
2022-09-28T19:55:37.315Z,11.70
2022-09-28T20:00:39.457Z,11.70
2022-09-28T20:05:42.531Z,11.70
2022-09-28T20:10:53.457Z,11.60
2022-09-28T20:15:56.482Z,11.50
2022-09-28T20:21:05.945Z,11.50
2022-09-28T20:26:10.543Z,11.50
2022-09-28T20:31:15.315Z,11.40
2022-09-28T20:36:19.306Z,11.30
2022-09-28T20:41:24.307Z,11.20
2022-09-28T20:46:26.882Z,11.20
2022-09-28T20:51:29.349Z,11.20
2022-09-28T20:56:37.848Z,11.10
2022-09-28T21:01:40.425Z,11.00
2022-09-28T21:06:43.641Z,11.00
2022-09-28T21:11:48.336Z,11.00
2022-09-28T21:16:50.798Z,11.10
2022-09-28T21:21:52.995Z,11.20
2022-09-28T21:26:56.694Z,11.20
2022-09-28T21:31:58.823Z,11.20
2022-09-28T21:37:00.884Z,11.20
2022-09-28T21:42:04.308Z,11.20
2022-09-28T21:47:06.405Z,11.10
2022-09-28T21:52:08.487Z,11.10
2022-09-28T21:57:12.104Z,11.10
2022-09-28T22:02:14.292Z,11.00
2022-09-28T22:07:16.354Z,10.90
2022-09-28T22:12:20.054Z,10.80
2022-09-28T22:17:22.228Z,10.90
2022-09-28T22:22:29.298Z,10.80
2022-09-28T22:27:33.022Z,10.80
2022-09-28T22:32:35.120Z,10.70
2022-09-28T22:37:37.196Z,10.70
2022-09-28T22:42:40.854Z,10.80
2022-09-28T22:47:43.300Z,10.70
2022-09-28T22:52:45.553Z,10.70
2022-09-28T22:57:49.016Z,10.70
2022-09-28T23:02:51.183Z,10.60
2022-09-28T23:07:53.426Z,10.50
2022-09-28T23:12:57.672Z,10.50
2022-09-28T23:17:59.791Z,10.50
2022-09-28T23:23:02.107Z,10.50
2022-09-28T23:28:05.620Z,10.60
2022-09-28T23:33:07.858Z,10.50
2022-09-28T23:38:13.612Z,10.50
2022-09-28T23:43:19.656Z,10.40
2022-09-28T23:48:21.800Z,10.30
2022-09-28T23:53:27.989Z,10.20
2022-09-28T23:58:31.443Z,10.10
